• Join FlightAware (Why Join?)
  • Login
  • US Flag 
01:34AM EDT


 

Airport Tracker/Info


-or-


 

Live Flight TrackerFlight Track Log ✈ SWA1668 ✈ 01-May-2013 ✈ KAMA - KDAL

Flight Track Log - Related Links

Times and Time Zones

All times are in EDT time to prevent confusion due to time zone crossing. See the SWA1668 flight status page for this flight to view local times or setup timezone preferences in your user account.

Time Position Orientation Groundspeed Altitude Reporting Facility
EDT Latitude Longitude Course Direction KTS MPH feet Rate Location/Type
04:14PM 35.1842 -101.4647 105° East 292 336 11,100  Level Albuquerque Center
04:15PM 35.1592 -101.3450 104° East 352 405 14,300 3,180 Climbing Albuquerque Center
04:16PM 35.1328 -101.2225 105° East 370 426 17,700 3,000 Climbing Albuquerque Center
04:17PM 35.1002 -101.1341 107° East  Level FlightAware Approximate
04:17PM 35.0944 -101.1050 112° Southeast 373 429 20,600  Level Albuquerque Center
04:18PM 35.0830 -101.0155 112° Southeast  Level FlightAware Approximate
04:18PM 35.0319 -100.9606 118° Southeast 397 457 23,200  Level Albuquerque Center
04:19PM 34.9775 -100.8339 118° Southeast 416 479 25,500 2,100 Climbing Albuquerque Center
04:20PM 34.9206 -100.7011 118° Southeast 434 499 27,600 1,920 Climbing Albuquerque Center
04:21PM 34.8614 -100.5650 118° Southeast 448 516 29,500 1,860 Climbing Albuquerque Center
04:22PM 34.8008 -100.4256 118° Southeast 462 532 31,500 2,400 Climbing Albuquerque Center
04:23PM 34.7336 -100.2742 118° Southeast 454 522 34,500 2,160 Climbing Albuquerque Center
04:24PM 34.6769 -100.1442 118° Southeast 440 506 36,000 1,140 Climbing Albuquerque Center
04:25PM 34.6175 -100.0097 118° Southeast 446 513 36,900 960 Climbing Albuquerque Center
04:26PM 34.5567 -99.8725 118° Southeast 456 525 38,100 960 Climbing Albuquerque Center
04:27PM 34.4956 -99.7347 118° Southeast 461 531 39,000 420 Climbing Albuquerque Center
04:28PM 34.4336 -99.6017 119° Southeast 465 535 39,000  Level Fort Worth Center
04:29PM 34.3733 -99.4667 118° Southeast 465 535 39,000  Level Fort Worth Center
04:30PM 34.3092 -99.3167 117° Southeast 465 535 39,000  Level Fort Worth Center
04:31PM 34.2506 -99.1872 119° Southeast 453 521 39,000  Level Fort Worth Center
04:32PM 34.1856 -99.0556 121° Southeast 453 521 39,000  Level Fort Worth Center
04:33PM 34.1267 -98.9264 119° Southeast 447 514 39,000 -240 Level Fort Worth Center
04:34PM 34.0697 -98.7925 117° Southeast 447 514 38,600 -1,380 Descending Fort Worth Center
04:35PM 34.0106 -98.6614 119° Southeast 446 513 36,300 -2,700 Descending Fort Worth Center
04:36PM 33.9492 -98.5328 120° Southeast 441 507 33,200 -3,120 Descending Fort Worth Center
04:37PM 33.8897 -98.4067 120° Southeast 436 502 30,100 -3,000 Descending Fort Worth Center
04:38PM 33.8281 -98.2736 119° Southeast 447 514 27,300 -2,700 Descending Fort Worth Center
04:39PM 33.7664 -98.1406 119° Southeast 447 514 24,800 -2,520 Descending Fort Worth Center
04:40PM 33.7086 -98.0153 119° Southeast 441 507 22,300 -2,460 Descending Fort Worth Center
04:41PM 33.6506 -97.8975 121° Southeast 428 493 19,900 -2,400 Descending Fort Worth Center
04:42PM 33.5989 -97.7850 119° Southeast 410 472 17,600 -2,280 Descending Fort Worth Center
04:43PM 33.5492 -97.6800 120° Southeast 394 453 15,400 -2,220 Descending Fort Worth Center
04:44PM 33.4969 -97.5703 120° Southeast 389 448 13,200 -2,400 Descending Fort Worth Center
04:45PM 33.4344 -97.4533 123° Southeast 384 442 10,700 -1,680 Descending Fort Worth Center
04:46PM 33.3697 -97.3861 139° Southeast 358 412 9,900 -900 Descending Fort Worth Center
04:47PM 33.3594 -97.2817 97° East 284 327 8,900 -1,320 Descending Fort Worth Center
04:48PM 33.3656 -97.1969 85° East 279 321 7,300 -1,500 Descending Fort Worth Center
04:49PM 33.3631 -97.0950 92° East 279 321 5,900 -1,260 Descending Fort Worth Center
04:50PM 33.3672 -97.0156 86° East 269 310 4,800 -960 Descending Fort Worth Center
04:51PM 33.3625 -96.9236 93° East 254 292 4,000 -420 Descending Fort Worth Center
04:52PM 33.3144 -96.8717 138° Southeast 233 268 4,000  Level Fort Worth Center
04:53PM 33.2494 -96.8347 155° Southeast 233 268 4,100  Climbing Fort Worth Center
04:54PM 33.1850 -96.8450 188° South 250 288 4,000 -60 Descending Fort Worth Center
04:55PM 33.1161 -96.8553 187° South 250 288 4,000  Level Fort Worth Center
04:56PM 33.0667 -96.8667 191° South 223 257 4,000 -360 Level Dallas / Fort Worth TRACON
04:57PM 33.0167 -96.8833 196° South 205 236 3,400 -900 Descending Dallas / Fort Worth TRACON
04:58PM 32.9500 -96.9000 192° South 198 228 2,300 -780 Descending Dallas / Fort Worth TRACON
04:59PM 32.9000 -96.9000 180° South 160 184 1,800 -660 Descending Dallas / Fort Worth TRACON
05:00PM 32.8833 -96.8833 140° Southeast 140 161 1,100 -900 Descending Dallas / Fort Worth TRACON
05:02PM 32.8471 -96.8518 140° Southeast  Level Estimated
05:09PM 32.8471 -96.8518 140° Southeast  Level Estimated